Lake Ann, Michigan
Current Conditions -  °F | °C
As of 6:53 PM on Sunday 25 Jan 2015 (Local Time) from KTVC Reporting Station
Scattered Clouds Scattered Clouds  
Wind Chill: 15°   Ceiling: Unl
Heat Index: 15°   Visibility: 10mi
Dew Point:   Wind: 3mph
Humidity: 64%   Direction: 130°SE
Pressure: 30.04"   Gusts: NA
Location:  44.72°N, 85.84°W
Report Text: KTVC 252353Z 13003KT 10SM SCT110 M09/M15 A3004 RMK AO2 SLP186 4/005 T10941150 11072 21094 53007
Loading
Personal Weather Stations






























Interactive Weather Map New forecast layout! Learn more

10-Day Weather Forecast

Advertisements
Track Severe Weather on mobile